Time;durP1;ratioP1;P1;durP2;ratioP2;P2;SDS_P1;SDS_P2;PMS_P1;PMS_P2;Temp;Humidity;BMP_temperature;BMP_pressure;BME280_temperature;BME280_humidity;BME280_pressure;Samples;Min_cycle;Max_cycle;Signal;HPM_P1;HPM_P2
2021/12/25 00:08:32;;;;;;;7.07;5.72;;;;;;;;;;21077090;28;20048;-60
2021/12/25 00:18:35;;;;;;;8.10;6.30;;;;;;;;;;21090392;28;20455;-58
2021/12/25 00:38:43;;;;;;;11.88;7.63;;;;;;;;;;21090159;28;20048;-58
2021/12/25 00:48:46;;;;;;;8.48;5.50;;;;;;;;;;21088591;28;20051;-58
2021/12/25 00:58:48;;;;;;;6.38;4.05;;;;;;;;;;21088667;28;20079;-58
2021/12/25 01:08:50;;;;;;;7.15;4.30;;;;;;;;;;21088392;28;20414;-58
2021/12/25 01:39:48;;;;;;;8.15;5.03;;;;;;;;;;21085424;28;20477;-59
2021/12/25 01:49:40;;;;;;;9.10;5.13;;;;;;;;;;21084088;28;20511;-60
2021/12/25 01:59:43;;;;;;;7.72;4.65;;;;;;;;;;21083839;28;20059;-57
2021/12/25 02:09:45;;;;;;;9.77;3.97;;;;;;;;;;21083513;28;20089;-58
2021/12/25 02:19:56;;;;;;;10.73;4.35;;;;;;;;;;21064726;28;20417;-59
2021/12/25 02:29:59;;;;;;;6.95;3.70;;;;;;;;;;21082025;28;20048;-59
2021/12/25 02:40:06;;;;;;;5.07;3.28;;;;;;;;;;21081033;28;20505;-59
2021/12/25 02:50:11;;;;;;;6.80;3.13;;;;;;;;;;21080379;28;20494;-59
2021/12/25 03:00:19;;;;;;;4.80;3.47;;;;;;;;;;21080372;28;20486;-60
2021/12/25 03:10:24;;;;;;;5.25;3.20;;;;;;;;;;21079802;28;20051;-60
2021/12/25 03:20:44;;;;;;;5.22;3.63;;;;;;;;;;21078538;28;20048;-59
2021/12/25 03:30:58;;;;;;;5.07;3.50;;;;;;;;;;21078424;28;20413;-59
2021/12/25 03:41:06;;;;;;;4.22;3.30;;;;;;;;;;21077600;28;20093;-58
2021/12/25 04:11:43;;;;;;;4.05;2.58;;;;;;;;;;21093120;28;20052;-59
2021/12/25 04:21:54;;;;;;;3.70;2.78;;;;;;;;;;21093347;28;20052;-58
2021/12/25 05:13:35;;;;;;;4.45;2.80;;;;;;;;;;21089581;28;20056;-57
2021/12/25 05:23:36;;;;;;;5.70;3.00;;;;;;;;;;21088143;28;20070;-58
2021/12/25 05:33:39;;;;;;;7.18;4.20;;;;;;;;;;21087057;28;20436;-58
2021/12/25 05:43:42;;;;;;;5.10;3.90;;;;;;;;;;21068893;28;20404;-58
2021/12/25 05:53:45;;;;;;;7.43;4.30;;;;;;;;;;21085725;28;20052;-58
2021/12/25 06:03:47;;;;;;;8.63;4.80;;;;;;;;;;21085124;28;20048;-59
2021/12/25 06:13:57;;;;;;;7.88;5.35;;;;;;;;;;21083096;28;20151;-59
2021/12/25 06:24:02;;;;;;;6.80;5.05;;;;;;;;;;21083351;28;20044;-58
2021/12/25 06:34:05;;;;;;;10.45;6.60;;;;;;;;;;21082781;28;20074;-58
2021/12/25 06:44:09;;;;;;;9.73;6.15;;;;;;;;;;21081700;28;20177;-57
2021/12/25 06:54:11;;;;;;;8.63;6.03;;;;;;;;;;21080384;28;20052;-58
2021/12/25 07:04:13;;;;;;;9.20;5.32;;;;;;;;;;21080810;28;20048;-57
2021/12/25 07:14:16;;;;;;;8.20;5.13;;;;;;;;;;21080141;28;20040;-57
2021/12/25 07:24:17;;;;;;;7.53;5.50;;;;;;;;;;21078790;28;20520;-59
2021/12/25 07:34:20;;;;;;;7.60;5.30;;;;;;;;;;21079184;28;20048;-58
2021/12/25 07:44:23;;;;;;;5.20;3.85;;;;;;;;;;21079061;28;20090;-57
2021/12/25 07:54:26;;;;;;;6.95;4.68;;;;;;;;;;21077770;28;20044;-57
2021/12/25 08:04:28;;;;;;;8.77;5.82;;;;;;;;;;21076899;28;20131;-58
2021/12/25 08:14:29;;;;;;;8.98;5.32;;;;;;;;;;21076481;28;20493;-57
2021/12/25 08:24:31;;;;;;;7.82;5.93;;;;;;;;;;21076617;28;20051;-57
2021/12/25 08:34:33;;;;;;;6.32;4.88;;;;;;;;;;21082652;28;20441;-57
2021/12/25 08:45:39;;;;;;;6.82;4.90;;;;;;;;;;21090180;28;20058;-58
2021/12/25 08:55:00;;;;;;;5.97;4.43;;;;;;;;;;21082512;28;20102;-58
2021/12/25 09:05:01;;;;;;;5.28;3.28;;;;;;;;;;21089296;28;20048;-59
2021/12/25 09:15:11;;;;;;;7.47;3.65;;;;;;;;;;21089128;28;20524;-58
2021/12/25 09:25:24;;;;;;;5.93;3.20;;;;;;;;;;21087721;28;20056;-59
2021/12/25 09:35:25;;;;;;;6.40;3.75;;;;;;;;;;21087084;28;20063;-58
2021/12/25 09:45:26;;;;;;;4.57;3.03;;;;;;;;;;21085175;28;20055;-59
2021/12/25 09:55:28;;;;;;;6.22;2.90;;;;;;;;;;21086081;28;20131;-59
2021/12/25 10:05:29;;;;;;;6.75;3.40;;;;;;;;;;21084400;28;20047;-58
2021/12/25 10:15:30;;;;;;;11.00;4.60;;;;;;;;;;21084244;28;20131;-59
2021/12/25 10:25:46;;;;;;;11.13;5.43;;;;;;;;;;21082551;28;20405;-59
2021/12/25 10:35:47;;;;;;;7.03;3.35;;;;;;;;;;21082176;28;20162;-58
2021/12/25 10:46:02;;;;;;;6.40;3.58;;;;;;;;;;21081765;28;20059;-58
2021/12/25 10:56:11;;;;;;;10.43;2.50;;;;;;;;;;21080116;28;20476;-59
2021/12/25 11:06:17;;;;;;;7.75;2.72;;;;;;;;;;21080005;28;20409;-59
2021/12/25 11:26:21;;;;;;;10.43;3.10;;;;;;;;;;21078771;28;20044;-58
2021/12/25 11:36:22;;;;;;;7.43;3.60;;;;;;;;;;21078370;28;20413;-59
2021/12/25 11:46:36;;;;;;;38.67;24.45;;;;;;;;;;21078219;28;20060;-59
2021/12/25 11:56:59;;;;;;;11.87;6.40;;;;;;;;;;21077117;28;20135;-59
2021/12/25 12:07:04;;;;;;;9.93;3.63;;;;;;;;;;21079325;28;20296;-59
2021/12/25 12:17:09;;;;;;;9.15;3.92;;;;;;;;;;21092573;28;20086;-58
2021/12/25 12:27:12;;;;;;;7.55;3.70;;;;;;;;;;21092020;28;20146;-58
2021/12/25 12:37:14;;;;;;;13.13;5.65;;;;;;;;;;21091660;28;20052;-57
2021/12/25 12:47:17;;;;;;;5.68;4.68;;;;;;;;;;21090236;28;20044;-58
2021/12/25 12:57:21;;;;;;;7.70;4.88;;;;;;;;;;21088739;28;20094;-59
2021/12/25 13:07:24;;;;;;;10.77;6.10;;;;;;;;;;21071207;28;20086;-57
2021/12/25 13:17:25;;;;;;;14.32;6.65;;;;;;;;;;21087434;28;20104;-59
2021/12/25 13:27:26;;;;;;;10.57;6.60;;;;;;;;;;21086840;28;20087;-58
2021/12/25 13:37:28;;;;;;;12.25;7.70;;;;;;;;;;21086780;28;20058;-57
2021/12/25 13:47:30;;;;;;;11.13;7.10;;;;;;;;;;21085166;28;20044;-57
2021/12/25 13:57:33;;;;;;;8.73;6.07;;;;;;;;;;21084594;28;20071;-58
2021/12/25 14:07:37;;;;;;;7.18;4.95;;;;;;;;;;21082942;28;20056;-59
2021/12/25 14:17:40;;;;;;;11.98;5.20;;;;;;;;;;21083194;28;20052;-58
2021/12/25 14:27:41;;;;;;;8.75;5.93;;;;;;;;;;21083064;28;20052;-57
2021/12/25 14:37:43;;;;;;;9.05;6.53;;;;;;;;;;21081278;28;20048;-57
2021/12/25 14:47:48;;;;;;;6.55;5.07;;;;;;;;;;21081655;28;20092;-58
2021/12/25 14:57:50;;;;;;;6.60;5.10;;;;;;;;;;21080042;28;20055;-59
2021/12/25 15:07:53;;;;;;;7.30;4.65;;;;;;;;;;21080085;28;20451;-57
2021/12/25 15:17:54;;;;;;;8.60;6.57;;;;;;;;;;21078909;28;20048;-58
2021/12/25 15:27:58;;;;;;;5.18;3.97;;;;;;;;;;21079480;28;20044;-58
2021/12/25 15:38:01;;;;;;;8.98;5.38;;;;;;;;;;21078207;28;20406;-59
2021/12/25 15:48:03;;;;;;;9.13;5.85;;;;;;;;;;21093512;28;20051;-59
2021/12/25 15:58:07;;;;;;;10.60;7.38;;;;;;;;;;21094579;28;20061;-59
2021/12/25 16:08:09;;;;;;;;;;;;;;;;;;21094607;28;20075;-58
2021/12/25 16:18:10;;;;;;;6.72;4.80;;;;;;;;;;21093503;28;19927;-58
2021/12/25 16:28:13;;;;;;;5.78;4.20;;;;;;;;;;21092362;28;20044;-57
2021/12/25 16:38:15;;;;;;;8.27;5.32;;;;;;;;;;21092024;28;20047;-59
2021/12/25 16:48:17;;;;;;;6.88;4.82;;;;;;;;;;21090863;28;20044;-60
2021/12/25 16:58:18;;;;;;;12.45;9.88;;;;;;;;;;21089303;28;20048;-58
2021/12/25 17:08:20;;;;;;;16.45;13.80;;;;;;;;;;21089712;28;20106;-58
2021/12/25 17:18:22;;;;;;;7.07;6.38;;;;;;;;;;21089434;28;20047;-59
2021/12/25 17:28:23;;;;;;;6.78;6.18;;;;;;;;;;21087149;28;20178;-59
2021/12/25 17:38:30;;;;;;;7.40;6.63;;;;;;;;;;21086810;28;20074;-58
2021/12/25 17:48:32;;;;;;;9.57;7.40;;;;;;;;;;21085795;28;20086;-60
2021/12/25 17:58:34;;;;;;;10.32;8.23;;;;;;;;;;21085013;28;20048;-58
2021/12/25 18:08:35;;;;;;;10.52;8.45;;;;;;;;;;21083688;28;20047;-59
2021/12/25 18:18:37;;;;;;;8.05;7.07;;;;;;;;;;21083751;28;20508;-59
2021/12/25 18:28:38;;;;;;;13.00;9.45;;;;;;;;;;21082359;28;20088;-58
2021/12/25 18:38:42;;;;;;;9.65;8.25;;;;;;;;;;21081684;28;20429;-59
2021/12/25 18:48:43;;;;;;;9.15;7.28;;;;;;;;;;21081195;28;20420;-58
2021/12/25 18:58:45;;;;;;;8.95;7.93;;;;;;;;;;21080476;28;20055;-58
2021/12/25 19:08:46;;;;;;;12.73;8.07;;;;;;;;;;21080847;28;20051;-59
2021/12/25 19:18:47;;;;;;;9.73;8.50;;;;;;;;;;21079965;28;20048;-58
2021/12/25 19:28:48;;;;;;;13.15;9.70;;;;;;;;;;21079335;28;20048;-58
2021/12/25 19:38:49;;;;;;;10.73;8.82;;;;;;;;;;21078758;28;20044;-58
2021/12/25 19:48:57;;;;;;;10.45;8.13;;;;;;;;;;21077294;28;20105;-60
2021/12/25 19:59:03;;;;;;;9.57;8.57;;;;;;;;;;21076749;28;20063;-58
2021/12/25 20:09:05;;;;;;;8.88;7.15;;;;;;;;;;21077373;28;20079;-59
2021/12/25 20:19:07;;;;;;;7.20;5.82;;;;;;;;;;21076891;28;20070;-58
2021/12/25 20:29:09;;;;;;;25.25;22.05;;;;;;;;;;21081402;28;20048;-60
2021/12/25 20:39:14;;;;;;;19.95;14.13;;;;;;;;;;21090532;28;20047;-59
2021/12/25 20:49:17;;;;;;;14.35;10.52;;;;;;;;;;21091165;28;20455;-58
2021/12/25 20:59:21;;;;;;;15.75;12.02;;;;;;;;;;21089924;28;20409;-61
2021/12/25 21:09:23;;;;;;;14.65;13.07;;;;;;;;;;21089382;28;20059;-58
2021/12/25 21:19:27;;;;;;;20.70;16.52;;;;;;;;;;21089086;28;20077;-59
2021/12/25 21:29:29;;;;;;;19.15;16.42;;;;;;;;;;21088755;28;20130;-58
2021/12/25 21:39:33;;;;;;;20.48;15.70;;;;;;;;;;21087028;28;20563;-62
2021/12/25 21:49:35;;;;;;;25.67;21.08;;;;;;;;;;21086547;28;20068;-61
2021/12/25 21:59:42;;;;;;;22.20;15.45;;;;;;;;;;21084573;28;20070;-59
2021/12/25 22:09:48;;;;;;;13.30;11.85;;;;;;;;;;21084615;28;20051;-61
2021/12/25 22:19:56;;;;;;;13.43;11.55;;;;;;;;;;21083449;28;20074;-60
2021/12/25 22:30:00;;;;;;;20.10;13.98;;;;;;;;;;21082828;28;20044;-60
2021/12/25 22:40:04;;;;;;;18.55;14.27;;;;;;;;;;21082614;28;20067;-59
2021/12/25 22:50:08;;;;;;;18.77;14.88;;;;;;;;;;21081394;28;20048;-60
2021/12/25 23:00:17;;;;;;;26.65;20.88;;;;;;;;;;21081061;28;20189;-60
2021/12/25 23:10:20;;;;;;;19.90;15.70;;;;;;;;;;21079803;28;20040;-59
2021/12/25 23:20:24;;;;;;;19.10;15.23;;;;;;;;;;21079473;28;20096;-59
2021/12/25 23:30:26;;;;;;;19.88;14.40;;;;;;;;;;21079590;28;20052;-59
2021/12/25 23:40:28;;;;;;;21.48;15.95;;;;;;;;;;21079274;28;20055;-58
2021/12/25 23:50:32;;;;;;;21.25;15.20;;;;;;;;;;21078791;28;20044;-57
